KLIT

Adams Field/Bill and Hillary Clinton National Airport

Airport
ICAO code
KLIT
IATA Code
LIT
Summary
ICAO Region
NAM
ICAO Territory
Location

Little Rock, Arkansas,

Serving
Little Rock
Elevation
262 ft
Coordinates
34° 43' 48" N , 92° 13' 33" W
KCC
Airport LOS
Parallel Runway Operation
Airport RE
Engineered Materials Arresting System
Metar
Observation
KLIT 260853Z 35005KT 10SM CLR 18/08 A3004 RMK AO2 SLP171 T01780083 51008
Station
Little Rock, Adams Field
Date/Time
2022-09-26 08:53:00
Wind direction
350°
Wind speed
05 kts
Lowest cloud amount
n/a
Temperature
17.8°C
Dew point
8.3°C
Humidity
53%
Weather condition
n/a

Description

Airport serving Little Rock, Arkansas, USA, located 2 nm east of the city's business district.

Climatology

Humid “subtropical” climate (Köppen climate classification Cfa) - characterized by hot, humid summers and cool winters. Significant amounts of precipitation occur in all seasons in most areas. Winter rainfall (and sometimes snowfall) is associated with large storms that the westerlies steer from west to east. Most summer rainfall occurs during thunderstorms and occasional tropical storms (hurricanes).

Runways

Designator Length Width Surface Rops
18/36 1562 46 CON Yes/Yes
04R/22L 2195 46 CON Yes/Yes
04L/22R 2522 46 CON Yes/Yes

Airport map

Aerial View

Airport accidents

SKYbrary Partners:

Safety knowledge contributed by: